sensor_id;sensor_type;location;lat;lon;timestamp;temperature;humidity
67588;SHT31;54406;47.486;19.150;2022-08-19T12:15:39;31.14;44.63
67588;SHT31;54406;47.486;19.150;2022-08-19T12:18:08;32.90;41.35
67588;SHT31;54406;47.486;19.150;2022-08-19T12:20:38;33.69;39.65
67588;SHT31;54406;47.486;19.150;2022-08-19T12:23:06;34.19;38.98
67588;SHT31;54406;47.486;19.150;2022-08-19T12:25:32;34.55;38.38
67588;SHT31;54406;47.486;19.150;2022-08-19T12:28:00;34.77;37.92
67588;SHT31;54406;47.486;19.150;2022-08-19T12:30:25;35.12;37.39
67588;SHT31;54406;47.486;19.150;2022-08-19T12:32:51;35.52;37.19
67588;SHT31;54406;47.486;19.150;2022-08-19T12:35:17;35.77;37.00
67588;SHT31;54406;47.486;19.150;2022-08-19T12:37:46;35.85;36.96
67588;SHT31;54406;47.486;19.150;2022-08-19T12:40:13;35.83;36.47
67588;SHT31;54406;47.486;19.150;2022-08-19T12:42:39;35.89;36.58
67588;SHT31;54406;47.486;19.150;2022-08-19T12:45:13;36.00;36.28
67588;SHT31;54406;47.486;19.150;2022-08-19T12:47:39;36.01;36.12
67588;SHT31;54406;47.486;19.150;2022-08-19T12:50:05;35.94;35.84
67588;SHT31;54406;47.486;19.150;2022-08-19T12:52:35;35.89;35.87
67588;SHT31;54406;47.486;19.150;2022-08-19T12:55:06;35.85;35.95
67588;SHT31;54406;47.486;19.150;2022-08-19T12:57:32;35.77;35.93
67588;SHT31;54406;47.486;19.150;2022-08-19T13:00:08;35.67;36.06
67588;SHT31;54406;47.486;19.150;2022-08-19T13:02:41;35.70;36.16
67588;SHT31;54406;47.486;19.150;2022-08-19T13:05:08;35.66;36.31
67588;SHT31;54406;47.486;19.150;2022-08-19T13:07:36;35.76;35.92
67588;SHT31;54406;47.486;19.150;2022-08-19T13:10:05;35.79;36.13
67588;SHT31;54406;47.486;19.150;2022-08-19T13:12:30;35.70;35.84
67588;SHT31;54406;47.486;19.150;2022-08-19T13:14:56;35.56;36.20
67588;SHT31;54406;47.486;19.150;2022-08-19T13:17:21;35.57;36.29
67588;SHT31;54406;47.486;19.150;2022-08-19T13:19:48;35.69;35.89
67588;SHT31;54406;47.486;19.150;2022-08-19T13:22:13;35.97;35.30
67588;SHT31;54406;47.486;19.150;2022-08-19T13:24:39;36.16;35.24
67588;SHT31;54406;47.486;19.150;2022-08-19T13:27:04;36.37;35.51
67588;SHT31;54406;47.486;19.150;2022-08-19T13:29:32;36.37;34.84
67588;SHT31;54406;47.486;19.150;2022-08-19T13:32:16;36.38;34.84
67588;SHT31;54406;47.486;19.150;2022-08-19T13:35:00;36.24;35.17
67588;SHT31;54406;47.486;19.150;2022-08-19T13:37:25;36.11;35.54
67588;SHT31;54406;47.486;19.150;2022-08-19T13:40:14;36.00;35.51
67588;SHT31;54406;47.486;19.150;2022-08-19T13:42:44;35.93;35.57
67588;SHT31;54406;47.486;19.150;2022-08-19T13:45:13;35.89;35.31
67588;SHT31;54406;47.486;19.150;2022-08-19T13:47:40;35.75;35.29
67588;SHT31;54406;47.486;19.150;2022-08-19T13:50:15;35.77;35.45
67588;SHT31;54406;47.486;19.150;2022-08-19T13:52:42;35.85;35.36
67588;SHT31;54406;47.486;19.150;2022-08-19T13:55:09;35.83;35.48
67588;SHT31;54406;47.486;19.150;2022-08-19T13:57:35;35.80;35.30
67588;SHT31;54406;47.486;19.150;2022-08-19T14:00:06;35.76;35.61
67588;SHT31;54406;47.486;19.150;2022-08-19T14:02:33;35.83;35.19
67588;SHT31;54406;47.486;19.150;2022-08-19T14:04:58;35.87;35.24
67588;SHT31;54406;47.486;19.150;2022-08-19T14:07:24;35.94;35.28
67588;SHT31;54406;47.486;19.150;2022-08-19T14:09:52;36.00;35.13
67588;SHT31;54406;47.486;19.150;2022-08-19T14:12:21;36.08;36.28
67588;SHT31;54406;47.486;19.150;2022-08-19T14:14:46;35.92;37.86
67588;SHT31;54406;47.486;19.150;2022-08-19T14:17:12;35.75;38.92
67588;SHT31;54406;47.486;19.150;2022-08-19T14:19:37;35.34;40.14
67588;SHT31;54406;47.486;19.150;2022-08-19T14:22:03;34.99;40.97
67588;SHT31;54406;47.486;19.150;2022-08-19T14:24:29;34.77;41.55
67588;SHT31;54406;47.486;19.150;2022-08-19T14:26:55;34.24;42.16
67588;SHT31;54406;47.486;19.150;2022-08-19T14:29:20;34.23;42.32
67588;SHT31;54406;47.486;19.150;2022-08-19T14:31:45;34.06;42.50
67588;SHT31;54406;47.486;19.150;2022-08-19T14:34:11;33.93;42.72
67588;SHT31;54406;47.486;19.150;2022-08-19T14:36:38;33.68;43.16
67588;SHT31;54406;47.486;19.150;2022-08-19T14:39:04;33.62;43.41
67588;SHT31;54406;47.486;19.150;2022-08-19T14:41:29;33.51;43.89
67588;SHT31;54406;47.486;19.150;2022-08-19T14:43:56;33.31;44.32
67588;SHT31;54406;47.486;19.150;2022-08-19T14:46:24;33.21;44.61
67588;SHT31;54406;47.486;19.150;2022-08-19T14:48:51;32.92;44.88
67588;SHT31;54406;47.486;19.150;2022-08-19T14:51:17;32.80;44.83
67588;SHT31;54406;47.486;19.150;2022-08-19T14:53:44;32.65;44.92
67588;SHT31;54406;47.486;19.150;2022-08-19T14:56:12;32.45;45.02
67588;SHT31;54406;47.486;19.150;2022-08-19T14:58:38;32.26;45.39
67588;SHT31;54406;47.486;19.150;2022-08-19T15:01:06;32.10;45.37
67588;SHT31;54406;47.486;19.150;2022-08-19T15:03:31;31.86;45.48
67588;SHT31;54406;47.486;19.150;2022-08-19T15:05:58;31.75;45.73
67588;SHT31;54406;47.486;19.150;2022-08-19T15:08:24;31.76;45.20
67588;SHT31;54406;47.486;19.150;2022-08-19T15:10:51;31.69;44.56
67588;SHT31;54406;47.486;19.150;2022-08-19T15:13:16;31.69;43.60
67588;SHT31;54406;47.486;19.150;2022-08-19T15:15:42;31.68;43.38
67588;SHT31;54406;47.486;19.150;2022-08-19T15:18:07;31.75;42.53
67588;SHT31;54406;47.486;19.150;2022-08-19T15:20:35;31.73;41.99
67588;SHT31;54406;47.486;19.150;2022-08-19T15:23:00;31.72;41.58
67588;SHT31;54406;47.486;19.150;2022-08-19T15:25:26;31.53;41.93
67588;SHT31;54406;47.486;19.150;2022-08-19T15:27:52;31.51;41.69
67588;SHT31;54406;47.486;19.150;2022-08-19T15:30:24;31.46;41.80
67588;SHT31;54406;47.486;19.150;2022-08-19T15:32:50;31.38;41.64
67588;SHT31;54406;47.486;19.150;2022-08-19T15:35:17;31.32;41.56
67588;SHT31;54406;47.486;19.150;2022-08-19T15:37:44;31.20;41.96
67588;SHT31;54406;47.486;19.150;2022-08-19T15:40:10;31.06;42.69
67588;SHT31;54406;47.486;19.150;2022-08-19T15:42:37;30.94;43.43
67588;SHT31;54406;47.486;19.150;2022-08-19T15:45:06;30.84;43.79
67588;SHT31;54406;47.486;19.150;2022-08-19T15:47:32;30.84;43.23
67588;SHT31;54406;47.486;19.150;2022-08-19T15:49:58;30.80;42.71
67588;SHT31;54406;47.486;19.150;2022-08-19T15:52:23;30.70;43.54
67588;SHT31;54406;47.486;19.150;2022-08-19T15:54:49;30.59;43.97
67588;SHT31;54406;47.486;19.150;2022-08-19T15:57:14;30.53;43.60
67588;SHT31;54406;47.486;19.150;2022-08-19T15:59:46;30.50;44.03
67588;SHT31;54406;47.486;19.150;2022-08-19T16:02:30;30.46;44.89
67588;SHT31;54406;47.486;19.150;2022-08-19T16:05:18;30.40;45.10
67588;SHT31;54406;47.486;19.150;2022-08-19T16:08:04;30.39;45.45
67588;SHT31;54406;47.486;19.150;2022-08-19T16:10:29;30.37;45.70
67588;SHT31;54406;47.486;19.150;2022-08-19T16:12:56;30.35;45.47
67588;SHT31;54406;47.486;19.150;2022-08-19T16:15:24;30.30;45.50
67588;SHT31;54406;47.486;19.150;2022-08-19T16:17:49;30.33;45.53
67588;SHT31;54406;47.486;19.150;2022-08-19T16:20:15;30.29;45.41
67588;SHT31;54406;47.486;19.150;2022-08-19T16:22:41;30.22;45.40
67588;SHT31;54406;47.486;19.150;2022-08-19T16:25:08;30.20;45.72
67588;SHT31;54406;47.486;19.150;2022-08-19T16:27:34;30.18;45.29
67588;SHT31;54406;47.486;19.150;2022-08-19T16:30:00;30.18;45.46
67588;SHT31;54406;47.486;19.150;2022-08-19T16:32:25;30.18;45.47
67588;SHT31;54406;47.486;19.150;2022-08-19T16:34:51;30.12;45.42
67588;SHT31;54406;47.486;19.150;2022-08-19T16:37:17;30.06;45.34
67588;SHT31;54406;47.486;19.150;2022-08-19T16:39:43;30.05;45.06
67588;SHT31;54406;47.486;19.150;2022-08-19T16:42:10;30.05;45.05
67588;SHT31;54406;47.486;19.150;2022-08-19T16:44:39;29.95;45.30
67588;SHT31;54406;47.486;19.150;2022-08-19T16:47:04;29.91;45.24
67588;SHT31;54406;47.486;19.150;2022-08-19T16:49:31;29.86;45.48
67588;SHT31;54406;47.486;19.150;2022-08-19T16:51:56;29.85;45.24
67588;SHT31;54406;47.486;19.150;2022-08-19T16:54:22;29.81;45.45
67588;SHT31;54406;47.486;19.150;2022-08-19T16:56:47;29.75;45.48
67588;SHT31;54406;47.486;19.150;2022-08-19T16:59:15;29.72;45.41
67588;SHT31;54406;47.486;19.150;2022-08-19T17:01:41;29.75;44.97
67588;SHT31;54406;47.486;19.150;2022-08-19T17:04:09;29.70;44.99
67588;SHT31;54406;47.486;19.150;2022-08-19T17:06:35;29.68;44.72
67588;SHT31;54406;47.486;19.150;2022-08-19T17:09:04;29.67;44.89
67588;SHT31;54406;47.486;19.150;2022-08-19T17:11:30;29.70;44.45
67588;SHT31;54406;47.486;19.150;2022-08-19T17:13:59;29.71;44.34
67588;SHT31;54406;47.486;19.150;2022-08-19T17:16:29;29.68;44.52
67588;SHT31;54406;47.486;19.150;2022-08-19T17:18:57;29.55;44.87
67588;SHT31;54406;47.486;19.150;2022-08-19T17:21:26;29.46;45.65
67588;SHT31;54406;47.486;19.150;2022-08-19T17:23:53;29.38;46.16
67588;SHT31;54406;47.486;19.150;2022-08-19T17:26:20;29.34;46.13
67588;SHT31;54406;47.486;19.150;2022-08-19T17:28:47;29.30;46.30
67588;SHT31;54406;47.486;19.150;2022-08-19T17:31:17;29.24;46.28
67588;SHT31;54406;47.486;19.150;2022-08-19T17:33:43;29.17;46.32
67588;SHT31;54406;47.486;19.150;2022-08-19T17:36:09;29.07;46.56
67588;SHT31;54406;47.486;19.150;2022-08-19T17:38:35;29.00;46.72
67588;SHT31;54406;47.486;19.150;2022-08-19T17:41:01;28.93;47.01
67588;SHT31;54406;47.486;19.150;2022-08-19T17:43:34;28.89;47.18
67588;SHT31;54406;47.486;19.150;2022-08-19T17:46:02;28.80;47.05
67588;SHT31;54406;47.486;19.150;2022-08-19T17:48:32;28.73;47.48
67588;SHT31;54406;47.486;19.150;2022-08-19T17:51:37;28.58;47.84
67588;SHT31;54406;47.486;19.150;2022-08-19T17:54:09;28.51;48.35
67588;SHT31;54406;47.486;19.150;2022-08-19T17:56:36;28.41;48.97
67588;SHT31;54406;47.486;19.150;2022-08-19T17:59:06;28.37;49.13
67588;SHT31;54406;47.486;19.150;2022-08-19T18:01:32;28.38;48.93
67588;SHT31;54406;47.486;19.150;2022-08-19T18:03:58;28.37;48.80
67588;SHT31;54406;47.486;19.150;2022-08-19T18:06:24;28.38;48.68
67588;SHT31;54406;47.486;19.150;2022-08-19T18:08:49;28.34;48.63
67588;SHT31;54406;47.486;19.150;2022-08-19T18:11:15;28.37;48.55
67588;SHT31;54406;47.486;19.150;2022-08-19T18:13:41;28.41;48.31
67588;SHT31;54406;47.486;19.150;2022-08-19T18:16:07;28.37;48.49
67588;SHT31;54406;47.486;19.150;2022-08-19T18:18:36;28.42;48.28
67588;SHT31;54406;47.486;19.150;2022-08-19T18:21:01;28.39;48.51
67588;SHT31;54406;47.486;19.150;2022-08-19T18:23:26;28.38;48.58
67588;SHT31;54406;47.486;19.150;2022-08-19T18:25:52;28.42;48.63
67588;SHT31;54406;47.486;19.150;2022-08-19T18:28:17;28.34;50.19
67588;SHT31;54406;47.486;19.150;2022-08-19T18:30:43;28.22;51.08
67588;SHT31;54406;47.486;19.150;2022-08-19T18:33:09;28.04;51.84
67588;SHT31;54406;47.486;19.150;2022-08-19T18:35:43;27.94;52.37
67588;SHT31;54406;47.486;19.150;2022-08-19T18:38:14;27.77;52.59
67588;SHT31;54406;47.486;19.150;2022-08-19T18:40:59;27.70;52.46
67588;SHT31;54406;47.486;19.150;2022-08-19T18:43:44;27.76;51.87
67588;SHT31;54406;47.486;19.150;2022-08-19T18:46:28;27.83;51.36
67588;SHT31;54406;47.486;19.150;2022-08-19T18:49:19;27.80;50.70
67588;SHT31;54406;47.486;19.150;2022-08-19T18:51:47;27.78;51.51
67588;SHT31;54406;47.486;19.150;2022-08-19T18:54:14;27.70;53.17
67588;SHT31;54406;47.486;19.150;2022-08-19T18:56:39;27.60;54.33
67588;SHT31;54406;47.486;19.150;2022-08-19T18:59:09;27.42;55.91
67588;SHT31;54406;47.486;19.150;2022-08-19T19:01:37;27.05;57.33
67588;SHT31;54406;47.486;19.150;2022-08-19T19:04:08;26.92;58.14
67588;SHT31;54406;47.486;19.150;2022-08-19T19:06:38;26.79;58.97
67588;SHT31;54406;47.486;19.150;2022-08-19T19:09:10;26.71;59.38
67588;SHT31;54406;47.486;19.150;2022-08-19T19:11:38;26.52;59.49
67588;SHT31;54406;47.486;19.150;2022-08-19T19:14:06;26.45;59.80
67588;SHT31;54406;47.486;19.150;2022-08-19T19:16:39;26.40;60.18
67588;SHT31;54406;47.486;19.150;2022-08-19T19:19:05;26.31;60.32
67588;SHT31;54406;47.486;19.150;2022-08-19T19:21:39;26.27;60.23
67588;SHT31;54406;47.486;19.150;2022-08-19T19:24:09;26.28;60.29
67588;SHT31;54406;47.486;19.150;2022-08-19T19:26:35;26.16;60.68
67588;SHT31;54406;47.486;19.150;2022-08-19T19:29:01;26.18;60.51
67588;SHT31;54406;47.486;19.150;2022-08-19T19:31:26;26.06;60.67
67588;SHT31;54406;47.486;19.150;2022-08-19T19:33:54;26.07;60.53
67588;SHT31;54406;47.486;19.150;2022-08-19T19:36:20;25.96;60.56
67588;SHT31;54406;47.486;19.150;2022-08-19T19:38:45;25.90;60.82
67588;SHT31;54406;47.486;19.150;2022-08-19T19:41:12;25.79;61.45
67588;SHT31;54406;47.486;19.150;2022-08-19T19:43:38;25.74;62.25
67588;SHT31;54406;47.486;19.150;2022-08-19T19:46:04;25.80;62.83
67588;SHT31;54406;47.486;19.150;2022-08-19T19:48:30;25.79;63.28
67588;SHT31;54406;47.486;19.150;2022-08-19T19:50:55;25.83;63.28
67588;SHT31;54406;47.486;19.150;2022-08-19T19:53:23;25.69;63.56
67588;SHT31;54406;47.486;19.150;2022-08-19T19:55:50;25.43;65.24
67588;SHT31;54406;47.486;19.150;2022-08-19T19:58:20;25.41;66.10
67588;SHT31;54406;47.486;19.150;2022-08-19T20:00:45;25.36;66.69
67588;SHT31;54406;47.486;19.150;2022-08-19T20:03:11;25.26;66.92
